Time;durP1;ratioP1;P1;durP2;ratioP2;P2;SDS_P1;SDS_P2;PMS_P1;PMS_P2;Temp;Humidity;BMP_temperature;BMP_pressure;BME280_temperature;BME280_humidity;BME280_pressure;Samples;Min_cycle;Max_cycle;Signal;HPM_P1;HPM_P2
2021/10/18 00:01:35;;;;;;;46.33;18.90;;;;;;;9.94;100.00;96914.28;5020259;28;20073;-51
2021/10/18 00:04:03;;;;;;;64.30;19.70;;;;;;;9.95;100.00;96921.22;5024564;28;20079;-53
2021/10/18 00:06:33;;;;;;;51.10;19.52;;;;;;;10.13;100.00;96922.28;5026570;28;20056;-52
2021/10/18 00:09:03;;;;;;;98.10;22.38;;;;;;;10.27;100.00;96920.31;5017376;28;20077;-49
2021/10/18 00:11:31;;;;;;;55.72;19.70;;;;;;;10.23;100.00;96923.19;5026026;28;20057;-53
2021/10/18 00:14:06;;;;;;;52.83;19.52;;;;;;;10.29;100.00;96927.13;5029224;28;20057;-51
2021/10/18 00:16:36;;;;;;;54.13;18.67;;;;;;;10.35;100.00;96931.03;5021820;28;20080;-51
2021/10/18 00:19:05;;;;;;;61.53;19.27;;;;;;;10.26;100.00;96929.19;5036271;28;20064;-55
2021/10/18 00:21:33;;;;;;;73.30;19.45;;;;;;;10.12;100.00;96930.34;5047009;28;20450;-54
2021/10/18 00:24:02;;;;;;;88.25;20.48;;;;;;;10.10;100.00;96929.63;5029011;28;20088;-55
2021/10/18 00:26:31;;;;;;;69.20;19.63;;;;;;;10.22;100.00;96933.88;5033352;28;20080;-52
2021/10/18 00:28:59;;;;;;;61.30;19.40;;;;;;;10.12;100.00;96935.63;5024271;28;20076;-48
2021/10/18 00:31:29;;;;;;;61.75;19.20;;;;;;;10.39;100.00;96937.72;5030042;28;20081;-56
2021/10/18 00:33:58;;;;;;;47.22;18.30;;;;;;;10.45;100.00;96934.56;5043403;28;20091;-55
2021/10/18 00:36:26;;;;;;;39.20;17.75;;;;;;;10.38;100.00;96933.41;5028600;28;20065;-55
2021/10/18 00:38:55;;;;;;;71.30;18.73;;;;;;;10.04;100.00;96936.25;5029575;28;20528;-55
2021/10/18 00:41:23;;;;;;;151.32;21.38;;;;;;;10.02;100.00;96932.09;5020888;28;20084;-55
2021/10/18 00:43:53;;;;;;;91.30;18.92;;;;;;;10.01;100.00;96938.31;5017453;28;20532;-55
2021/10/18 00:46:22;;;;;;;54.85;17.92;;;;;;;10.08;100.00;96937.69;5022768;28;20253;-54
2021/10/18 00:48:54;;;;;;;42.33;18.03;;;;;;;9.99;100.00;96934.00;5032633;28;20080;-55
2021/10/18 00:51:25;;;;;;;49.45;17.52;;;;;;;10.36;100.00;96935.34;5045566;28;20873;-52
2021/10/18 00:53:55;;;;;;;73.45;19.23;;;;;;;10.50;100.00;96927.09;5045952;28;20085;-53
2021/10/18 00:56:24;;;;;;;60.60;18.52;;;;;;;10.20;100.00;96927.88;5012087;28;20072;-54
2021/10/18 00:58:53;;;;;;;76.15;18.13;;;;;;;10.39;100.00;96932.44;5010277;28;20062;-53
2021/10/18 01:01:21;;;;;;;61.47;18.45;;;;;;;10.12;100.00;96931.19;5040877;28;20095;-51
2021/10/18 01:03:51;;;;;;;112.18;21.50;;;;;;;10.38;100.00;96931.59;5028906;28;20437;-53
2021/10/18 01:06:20;;;;;;;85.65;19.63;;;;;;;10.38;100.00;96928.13;5040120;28;20081;-52
2021/10/18 01:08:48;;;;;;;98.32;19.35;;;;;;;10.28;100.00;96930.72;5049394;28;20498;-54
2021/10/18 01:11:17;;;;;;;65.65;18.80;;;;;;;10.21;100.00;96934.81;5046849;28;20077;-55
2021/10/18 01:13:45;;;;;;;44.70;18.17;;;;;;;10.13;100.00;96930.19;5029365;28;20069;-52
2021/10/18 01:16:15;;;;;;;49.70;19.08;;;;;;;9.93;100.00;96931.03;5031135;28;20060;-53
2021/10/18 01:18:43;;;;;;;114.32;20.55;;;;;;;9.52;100.00;96936.16;5044656;28;20061;-53
2021/10/18 01:21:13;;;;;;;49.38;19.40;;;;;;;10.23;100.00;96936.34;5038298;28;20079;-52
2021/10/18 01:23:42;;;;;;;50.67;19.05;;;;;;;10.09;100.00;96933.25;5051363;28;20037;-50
2021/10/18 01:26:10;;;;;;;77.72;19.13;;;;;;;10.12;100.00;96925.06;5036564;28;20064;-56
2021/10/18 01:28:39;;;;;;;70.30;19.65;;;;;;;10.28;100.00;96930.72;5047648;28;20121;-54
2021/10/18 01:31:07;;;;;;;58.55;19.75;;;;;;;10.20;100.00;96919.97;5036492;28;20127;-50
2021/10/18 01:33:36;;;;;;;49.85;17.20;;;;;;;10.15;100.00;96920.38;5027104;28;20065;-55
2021/10/18 01:36:05;;;;;;;53.28;19.25;;;;;;;9.74;100.00;96924.69;5031592;28;20544;-55
2021/10/18 01:38:34;;;;;;;50.75;17.75;;;;;;;9.85;100.00;96921.16;5042094;28;20103;-53
2021/10/18 01:41:03;;;;;;;69.07;19.38;;;;;;;10.03;100.00;96928.47;5039989;28;20464;-54
2021/10/18 01:43:32;;;;;;;62.30;18.20;;;;;;;9.39;100.00;96919.69;5042547;28;20547;-53
2021/10/18 01:46:00;;;;;;;52.55;17.90;;;;;;;9.47;100.00;96926.97;5049508;28;20099;-54
2021/10/18 01:48:30;;;;;;;50.13;17.40;;;;;;;9.51;100.00;96931.88;5044853;28;20551;-55
2021/10/18 01:50:58;;;;;;;49.58;17.08;;;;;;;9.14;100.00;96931.38;5044846;28;20091;-52
2021/10/18 01:53:26;;;;;;;74.00;19.98;;;;;;;9.47;100.00;96934.88;5018643;28;20062;-52
2021/10/18 01:55:56;;;;;;;44.35;18.35;;;;;;;9.31;100.00;96939.72;5043414;28;20398;-55
2021/10/18 01:58:25;;;;;;;58.97;18.93;;;;;;;9.31;100.00;96942.34;5049232;28;20080;-47
2021/10/18 02:00:53;;;;;;;99.78;20.85;;;;;;;9.31;100.00;96944.97;5048626;28;20475;-54
2021/10/18 02:03:22;;;;;;;45.00;17.33;;;;;;;9.14;100.00;96938.44;5047063;28;20465;-53
2021/10/18 02:05:51;;;;;;;85.70;17.95;;;;;;;8.71;100.00;96945.34;5024190;28;20089;-54
2021/10/18 02:08:19;;;;;;;46.58;16.55;;;;;;;9.03;100.00;96939.31;5028740;28;20813;-51
2021/10/18 02:10:48;;;;;;;54.25;16.70;;;;;;;9.46;100.00;96946.34;5020648;28;20069;-54
2021/10/18 02:13:18;;;;;;;41.28;16.77;;;;;;;9.32;100.00;96941.38;5025078;28;20068;-54
2021/10/18 02:15:46;;;;;;;;;;;;;;;9.49;100.00;96943.47;5040567;28;20037;-48
2021/10/18 02:18:15;;;;;;;39.78;16.67;;;;;;;9.29;100.00;96947.75;5041032;28;19975;-52
2021/10/18 02:20:44;;;;;;;35.40;17.08;;;;;;;9.50;100.00;96948.63;5016627;28;20100;-50
2021/10/18 02:23:12;;;;;;;47.95;17.77;;;;;;;9.44;100.00;96941.22;5043875;28;20061;-50
2021/10/18 02:25:40;;;;;;;48.65;18.77;;;;;;;9.51;100.00;96941.56;5046676;28;20064;-53
2021/10/18 02:28:09;;;;;;;50.90;18.52;;;;;;;9.61;100.00;96939.00;5033728;28;20081;-52
2021/10/18 02:30:39;;;;;;;41.72;18.75;;;;;;;9.60;100.00;96943.44;5022801;28;20434;-51
2021/10/18 02:33:07;;;;;;;54.70;19.05;;;;;;;9.75;100.00;96947.44;5046918;28;20107;-48
2021/10/18 02:35:35;;;;;;;69.90;19.60;;;;;;;9.59;100.00;96939.13;5041854;28;20099;-48
2021/10/18 02:38:04;;;;;;;58.40;19.05;;;;;;;9.64;100.00;96944.84;5026340;28;20073;-54
2021/10/18 02:40:32;;;;;;;41.08;16.13;;;;;;;9.14;100.00;96948.97;5020858;28;20081;-48
2021/10/18 02:43:01;;;;;;;43.30;16.50;;;;;;;8.95;100.00;96944.38;5024588;28;20076;-49
2021/10/18 02:45:29;;;;;;;40.20;15.88;;;;;;;9.14;100.00;96941.09;5028525;28;20068;-51
2021/10/18 02:47:59;;;;;;;36.90;16.30;;;;;;;9.00;100.00;96944.81;5051135;28;20084;-53
2021/10/18 02:50:28;;;;;;;46.45;16.65;;;;;;;9.09;100.00;96944.09;5044276;28;20171;-57
2021/10/18 02:52:56;;;;;;;47.75;16.27;;;;;;;9.30;100.00;96945.94;5036518;28;20080;-55
2021/10/18 02:55:24;;;;;;;58.88;19.45;;;;;;;9.21;100.00;96937.81;5038372;28;20554;-52
2021/10/18 02:57:53;;;;;;;55.95;17.88;;;;;;;9.35;100.00;96936.69;5044685;28;20069;-50
2021/10/18 03:00:21;;;;;;;39.47;16.33;;;;;;;9.49;100.00;96935.56;5045297;28;20481;-53
2021/10/18 03:02:50;;;;;;;58.30;18.85;;;;;;;9.43;100.00;96941.38;5048542;28;20095;-54
2021/10/18 03:05:20;;;;;;;51.35;18.67;;;;;;;9.47;100.00;96943.59;5045847;28;20091;-55
2021/10/18 03:07:51;;;;;;;56.10;19.83;;;;;;;9.89;100.00;96935.75;5032345;28;20076;-53
2021/10/18 03:10:20;;;;;;;47.00;19.83;;;;;;;10.25;100.00;96938.03;5022874;28;20493;-53
2021/10/18 03:12:49;;;;;;;41.13;19.48;;;;;;;10.12;100.00;96947.00;5032122;28;20406;-49
2021/10/18 03:15:17;;;;;;;38.55;18.13;;;;;;;9.95;100.00;96947.56;5024821;28;20084;-52
2021/10/18 03:17:46;;;;;;;43.47;18.60;;;;;;;9.96;100.00;96943.97;5018131;28;20084;-53
2021/10/18 03:20:14;;;;;;;57.67;19.02;;;;;;;10.06;100.00;96946.66;5043112;28;20065;-53
2021/10/18 03:22:44;;;;;;;54.85;18.15;;;;;;;10.28;100.00;96950.97;5035729;28;20069;-55
2021/10/18 03:25:13;;;;;;;44.42;19.35;;;;;;;10.20;100.00;96946.34;5028488;28;20073;-55
2021/10/18 03:27:41;;;;;;;54.03;18.75;;;;;;;10.45;100.00;96948.56;5045965;28;20079;-56
2021/10/18 03:30:10;;;;;;;57.00;19.60;;;;;;;10.58;100.00;96945.72;5046188;28;20084;-51
2021/10/18 03:32:38;;;;;;;38.97;17.67;;;;;;;10.58;100.00;96951.00;5043237;28;20127;-54
2021/10/18 03:35:08;;;;;;;43.85;19.52;;;;;;;10.58;100.00;96956.25;5040345;28;20072;-53
2021/10/18 03:37:37;;;;;;;40.70;18.73;;;;;;;10.79;100.00;96950.91;5030874;28;20069;-53
2021/10/18 03:40:10;;;;;;;90.50;19.70;;;;;;;10.76;100.00;96950.34;5030258;28;20487;-52
2021/10/18 03:42:39;;;;;;;41.13;19.38;;;;;;;10.81;100.00;96958.72;5044338;28;20079;-54
2021/10/18 03:45:09;;;;;;;40.25;18.70;;;;;;;10.89;100.00;96964.97;5048207;28;20099;-53
2021/10/18 03:47:37;;;;;;;40.75;19.15;;;;;;;10.85;100.00;96968.03;5014537;28;20296;-53
2021/10/18 03:50:07;;;;;;;37.63;18.65;;;;;;;11.14;100.00;96968.94;5040751;28;20065;-55
2021/10/18 03:52:51;;;;;;;32.67;17.20;;;;;;;11.00;100.00;96974.59;5047466;28;20048;-53
2021/10/18 03:55:22;;;;;;;39.85;18.02;;;;;;;11.10;100.00;96972.81;5050852;28;20490;-55
2021/10/18 03:57:50;;;;;;;39.08;18.30;;;;;;;11.07;100.00;96978.38;5028653;28;20080;-54
2021/10/18 04:00:18;;;;;;;42.58;18.70;;;;;;;11.11;100.00;96985.06;5020730;28;20089;-56
2021/10/18 04:02:47;;;;;;;41.45;17.85;;;;;;;10.96;100.00;96998.75;5028062;28;20567;-54
2021/10/18 04:05:16;;;;;;;43.55;17.98;;;;;;;11.06;100.00;96997.00;5048492;28;20551;-54
2021/10/18 04:07:47;;;;;;;59.03;19.55;;;;;;;10.56;100.00;97005.66;5046301;28;20061;-54
2021/10/18 04:10:17;;;;;;;50.80;18.45;;;;;;;11.02;100.00;97003.50;5042622;28;20099;-52
2021/10/18 04:12:47;;;;;;;;;;;;;;;11.02;100.00;97003.50;5043201;28;20653;-54
2021/10/18 04:15:15;;;;;;;36.72;16.90;;;;;;;10.93;100.00;97008.59;5040870;28;19963;-51
2021/10/18 04:17:44;;;;;;;50.75;19.40;;;;;;;11.15;100.00;97010.22;5026700;28;20085;-52
2021/10/18 04:20:12;;;;;;;52.05;19.40;;;;;;;11.26;100.00;97016.38;5024472;28;20072;-54
2021/10/18 04:22:45;;;;;;;57.70;18.48;;;;;;;11.22;100.00;97013.16;5034976;28;20063;-53
2021/10/18 04:25:14;;;;;;;77.72;20.48;;;;;;;10.93;100.00;97013.88;5045309;28;20068;-51
2021/10/18 04:27:43;;;;;;;48.20;18.55;;;;;;;11.34;100.00;97014.69;5044069;28;20053;-57
2021/10/18 04:30:13;;;;;;;44.25;19.50;;;;;;;10.81;100.00;97016.75;5022658;28;20076;-54
2021/10/18 04:32:41;;;;;;;39.83;19.48;;;;;;;10.71;100.00;97018.53;5022821;28;20090;-52
2021/10/18 04:35:10;;;;;;;52.78;18.40;;;;;;;11.00;100.00;97024.75;5042377;28;20064;-54
2021/10/18 04:37:38;;;;;;;41.78;19.15;;;;;;;10.32;100.00;97028.81;5034427;28;20080;-54
2021/10/18 04:40:08;;;;;;;42.10;17.23;;;;;;;10.03;100.00;97045.25;5034602;28;20065;-52
2021/10/18 04:42:36;;;;;;;38.50;16.50;;;;;;;10.26;100.00;97039.91;5043852;28;20081;-58
2021/10/18 04:45:06;;;;;;;36.20;17.85;;;;;;;10.74;100.00;97031.44;5051975;28;20064;-55
2021/10/18 04:47:42;;;;;;;38.63;16.27;;;;;;;9.86;100.00;97048.44;5020072;28;21773;-51
2021/10/18 04:50:10;;;;;;;46.53;18.63;;;;;;;10.20;100.00;97035.94;5045457;28;20076;-54
2021/10/18 04:52:39;;;;;;;35.35;17.08;;;;;;;10.50;100.00;97043.13;5035831;28;20067;-54
2021/10/18 04:55:08;;;;;;;35.50;16.50;;;;;;;10.00;100.00;97050.78;5032510;28;20151;-50
2021/10/18 04:57:50;;;;;;;35.38;16.75;;;;;;;9.98;100.00;97052.72;5045216;28;20473;-49
2021/10/18 05:00:18;;;;;;;37.58;17.25;;;;;;;10.45;100.00;97055.84;5047314;28;21554;-58
2021/10/18 05:02:48;;;;;;;36.88;16.85;;;;;;;10.60;100.00;97059.00;5047494;28;20528;-54
2021/10/18 05:05:17;;;;;;;43.08;17.52;;;;;;;10.78;100.00;97056.59;5043253;28;20085;-50
2021/10/18 05:07:46;;;;;;;38.13;18.88;;;;;;;10.53;100.00;97055.19;5045209;28;20065;-51
2021/10/18 05:10:15;;;;;;;37.97;18.58;;;;;;;10.56;100.00;97050.50;5042938;28;20486;-53
2021/10/18 05:12:44;;;;;;;45.85;18.10;;;;;;;10.39;100.00;97049.31;5045254;28;20067;-53
2021/10/18 05:15:12;;;;;;;39.13;19.98;;;;;;;10.65;100.00;97047.06;5045870;28;20084;-55
2021/10/18 05:17:41;;;;;;;45.58;18.35;;;;;;;10.29;100.00;97051.03;5045449;28;20083;-51
2021/10/18 05:20:11;;;;;;;40.55;16.63;;;;;;;10.49;100.00;97057.25;5035757;28;20092;-55
2021/10/18 05:22:40;;;;;;;41.17;17.23;;;;;;;10.73;100.00;97058.78;5036352;28;20057;-55
2021/10/18 05:25:09;;;;;;;57.22;16.95;;;;;;;10.58;100.00;97060.94;5049488;28;20073;-53
2021/10/18 05:27:38;;;;;;;41.75;17.52;;;;;;;11.04;100.00;97057.81;5038610;28;20080;-56
2021/10/18 05:30:09;;;;;;;49.47;17.75;;;;;;;11.14;100.00;97061.31;5030971;28;20109;-54
2021/10/18 05:32:38;;;;;;;58.72;19.23;;;;;;;11.34;100.00;97077.25;5015258;28;20345;-54
2021/10/18 05:35:08;;;;;;;45.65;19.35;;;;;;;11.21;100.00;97072.19;5031797;28;20124;-55
2021/10/18 05:37:42;;;;;;;65.85;21.23;;;;;;;11.23;100.00;97080.00;5040126;28;20175;-52
2021/10/18 05:40:12;;;;;;;56.15;20.02;;;;;;;11.42;100.00;97093.25;5029420;28;20077;-52
2021/10/18 05:42:40;;;;;;;70.00;19.90;;;;;;;10.86;100.00;97096.34;5029552;28;20072;-54
2021/10/18 05:45:09;;;;;;;63.60;21.38;;;;;;;10.73;100.00;97100.97;5046378;28;21047;-52
2021/10/18 05:47:54;;;;;;;58.75;18.88;;;;;;;11.16;100.00;97090.25;5047242;28;20075;-56
2021/10/18 05:50:24;;;;;;;57.42;20.13;;;;;;;10.75;100.00;97097.25;5023789;28;20072;-56
2021/10/18 05:52:55;;;;;;;57.67;19.42;;;;;;;11.07;100.00;97099.78;5037448;28;20076;-53
2021/10/18 05:55:24;;;;;;;50.15;19.05;;;;;;;11.05;100.00;97109.66;5024816;28;20100;-52
2021/10/18 05:57:54;;;;;;;41.58;18.15;;;;;;;11.07;100.00;97109.50;5041151;28;20064;-56
2021/10/18 06:00:24;;;;;;;58.08;18.17;;;;;;;11.04;100.00;97110.59;5035657;28;20108;-51
2021/10/18 06:02:53;;;;;;;42.25;18.58;;;;;;;11.13;100.00;97109.81;5036992;28;20554;-54
2021/10/18 06:05:23;;;;;;;47.00;19.02;;;;;;;11.47;100.00;97109.53;5042420;28;20069;-54
2021/10/18 06:07:53;;;;;;;57.65;18.48;;;;;;;11.62;100.00;97105.53;5040017;28;20068;-57
2021/10/18 06:10:23;;;;;;;49.58;18.67;;;;;;;11.62;100.00;97107.34;5038072;28;20065;-56
2021/10/18 06:12:52;;;;;;;49.80;18.48;;;;;;;11.52;100.00;97117.03;5026770;28;20092;-53
2021/10/18 06:15:20;;;;;;;63.95;17.85;;;;;;;11.71;100.00;97121.56;5025034;28;20100;-50
2021/10/18 06:17:49;;;;;;;52.53;20.70;;;;;;;11.90;100.00;97116.34;5053376;28;20040;-51
2021/10/18 06:20:19;;;;;;;43.15;17.42;;;;;;;11.82;100.00;97127.56;5048629;28;20084;-57
2021/10/18 06:22:49;;;;;;;104.10;22.15;;;;;;;11.62;100.00;97125.84;5050382;28;20064;-55
2021/10/18 06:25:19;;;;;;;59.80;20.50;;;;;;;11.73;100.00;97127.53;5037688;28;20072;-53
2021/10/18 06:27:48;;;;;;;57.05;19.27;;;;;;;11.59;100.00;97131.38;5033410;28;20532;-54
2021/10/18 06:30:16;;;;;;;136.05;21.85;;;;;;;11.73;100.00;97119.59;5047805;28;20111;-53
2021/10/18 06:32:45;;;;;;;112.22;20.70;;;;;;;11.51;100.00;97120.66;5036965;28;20547;-54
2021/10/18 06:35:13;;;;;;;44.85;18.40;;;;;;;11.50;100.00;97126.94;5040987;28;20077;-51
2021/10/18 06:37:42;;;;;;;56.95;21.08;;;;;;;11.63;100.00;97123.06;5043596;28;20576;-55
2021/10/18 06:40:12;;;;;;;67.28;20.05;;;;;;;11.52;100.00;97135.53;5032927;28;20061;-55
2021/10/18 06:42:41;;;;;;;43.15;19.05;;;;;;;11.74;100.00;97145.06;5023859;28;20149;-55
2021/10/18 06:45:11;;;;;;;39.70;19.05;;;;;;;11.95;100.00;97143.22;5044345;28;20083;-54
2021/10/18 06:47:40;;;;;;;51.15;22.05;;;;;;;11.98;100.00;97148.22;5037685;28;20065;-49
2021/10/18 06:50:09;;;;;;;61.25;19.65;;;;;;;12.15;100.00;97149.38;5047790;28;20096;-55
2021/10/18 06:52:40;;;;;;;45.17;19.87;;;;;;;11.84;100.00;97151.25;5036564;28;20064;-55
2021/10/18 06:55:11;;;;;;;42.85;19.75;;;;;;;12.03;100.00;97159.22;5037411;28;20532;-53
2021/10/18 06:57:41;;;;;;;46.20;19.77;;;;;;;11.53;100.00;97159.19;5048136;28;20063;-53
2021/10/18 07:00:10;;;;;;;45.83;20.25;;;;;;;12.09;100.00;97171.06;5042672;28;20089;-53
2021/10/18 07:02:38;;;;;;;81.85;20.67;;;;;;;12.33;100.00;97178.59;5042009;28;20305;-55
2021/10/18 07:05:08;;;;;;;70.93;23.17;;;;;;;12.26;100.00;97174.84;5039851;28;20073;-53
2021/10/18 07:07:37;;;;;;;52.92;22.50;;;;;;;12.08;100.00;97172.88;5046805;28;20060;-55
2021/10/18 07:10:06;;;;;;;54.10;20.17;;;;;;;12.04;100.00;97176.75;5034635;28;20073;-55
2021/10/18 07:12:36;;;;;;;45.67;20.38;;;;;;;12.35;100.00;97177.50;5034503;28;20088;-52
2021/10/18 07:15:08;;;;;;;51.13;20.17;;;;;;;11.94;100.00;97185.63;5043858;28;20091;-53
2021/10/18 07:17:36;;;;;;;51.00;18.50;;;;;;;12.25;100.00;97183.72;5044771;28;20060;-53
2021/10/18 07:20:07;;;;;;;260.30;119.82;;;;;;;12.13;100.00;97192.78;5036755;28;20069;-54
2021/10/18 07:22:41;;;;;;;94.68;33.40;;;;;;;12.48;100.00;97187.78;5024811;28;20073;-56
2021/10/18 07:25:11;;;;;;;71.50;22.15;;;;;;;12.31;100.00;97188.47;5030063;28;20076;-53
2021/10/18 07:27:40;;;;;;;61.70;31.80;;;;;;;12.03;100.00;97187.47;5040174;28;20069;-52
2021/10/18 07:30:11;;;;;;;46.80;20.10;;;;;;;11.97;100.00;97193.28;5044151;28;20483;-49
2021/10/18 07:32:43;;;;;;;45.92;19.75;;;;;;;12.32;100.00;97184.88;5038280;28;20233;-51
2021/10/18 07:35:13;;;;;;;55.60;22.02;;;;;;;11.56;100.00;97187.13;5023861;28;20092;-54
2021/10/18 07:37:44;;;;;;;59.20;23.73;;;;;;;12.46;100.00;97189.75;5030656;28;20068;-50
2021/10/18 07:40:13;;;;;;;;;;;;;;;12.33;100.00;97184.72;5037202;28;20092;-51
2021/10/18 07:42:42;;;;;;;40.25;21.55;;;;;;;12.58;100.00;97188.63;5037691;28;19959;-52
2021/10/18 07:45:12;;;;;;;43.13;21.70;;;;;;;12.93;100.00;97200.44;5047137;28;20083;-56
2021/10/18 07:47:41;;;;;;;55.08;21.33;;;;;;;12.03;100.00;97198.03;5049038;28;20072;-52
2021/10/18 07:50:11;;;;;;;46.90;22.52;;;;;;;12.65;100.00;97198.66;5046487;28;20540;-55
2021/10/18 07:52:40;;;;;;;45.90;21.88;;;;;;;12.16;100.00;97206.56;5034541;28;20068;-54
2021/10/18 07:55:13;;;;;;;48.88;22.38;;;;;;;12.63;100.00;97206.75;5045658;28;20064;-51
2021/10/18 07:57:43;;;;;;;45.88;21.40;;;;;;;12.57;100.00;97212.59;5046821;28;20073;-53
2021/10/18 08:00:14;;;;;;;41.13;20.45;;;;;;;12.35;100.00;97211.03;5045725;28;20091;-54
2021/10/18 08:02:42;;;;;;;42.80;19.38;;;;;;;12.38;100.00;97207.28;5048532;28;20084;-53
2021/10/18 08:05:16;;;;;;;38.42;19.25;;;;;;;11.87;100.00;97211.75;5046644;28;20061;-51
2021/10/18 08:07:46;;;;;;;44.63;19.17;;;;;;;12.41;100.00;97212.28;5046428;28;20080;-57
2021/10/18 08:10:17;;;;;;;41.40;19.85;;;;;;;11.54;100.00;97211.03;5043351;28;20086;-56
2021/10/18 08:12:45;;;;;;;44.47;21.40;;;;;;;11.61;100.00;97211.34;5040097;28;20064;-48
2021/10/18 08:15:15;;;;;;;44.90;21.00;;;;;;;12.46;100.00;97207.44;5048777;28;20521;-56
2021/10/18 08:17:44;;;;;;;41.90;21.40;;;;;;;12.61;100.00;97208.69;5035124;28;20088;-54
2021/10/18 08:20:12;;;;;;;44.70;20.05;;;;;;;12.45;100.00;97211.03;5018876;28;20069;-55
2021/10/18 08:22:41;;;;;;;49.15;22.15;;;;;;;12.97;100.00;97211.59;5043075;28;20056;-55
2021/10/18 08:25:10;;;;;;;46.22;21.70;;;;;;;13.21;100.00;97213.78;5033722;28;20073;-54
2021/10/18 08:27:39;;;;;;;49.78;24.35;;;;;;;12.93;100.00;97224.28;5031587;28;20567;-53
2021/10/18 08:30:10;;;;;;;42.50;21.13;;;;;;;11.94;100.00;97226.13;5052460;28;20099;-56
2021/10/18 08:32:40;;;;;;;46.15;21.08;;;;;;;12.05;100.00;97230.47;5029699;28;20310;-52
2021/10/18 08:35:11;;;;;;;46.72;21.70;;;;;;;12.62;100.00;97230.69;5032055;28;20077;-55
2021/10/18 08:40:25;;;;;;;43.53;23.45;;;;;;;12.65;100.00;97241.00;5014317;28;20080;-53
2021/10/18 08:42:57;;;;;;;46.03;22.27;;;;;;;12.55;100.00;97247.13;5041051;28;20069;-53
2021/10/18 08:45:26;;;;;;;44.05;21.45;;;;;;;12.74;100.00;97248.13;5045293;28;20524;-55
2021/10/18 08:47:56;;;;;;;39.33;19.08;;;;;;;13.07;100.00;97242.41;5026409;28;20095;-56
2021/10/18 08:50:25;;;;;;;44.22;19.45;;;;;;;12.99;100.00;97249.38;5027122;28;20061;-56
2021/10/18 08:52:54;;;;;;;45.07;21.43;;;;;;;13.19;100.00;97243.09;5044332;28;20069;-54
2021/10/18 08:55:22;;;;;;;42.78;21.58;;;;;;;13.21;100.00;97249.09;5050473;28;20099;-51
2021/10/18 08:57:51;;;;;;;42.47;21.17;;;;;;;12.83;100.00;97237.53;5047988;28;20072;-54
2021/10/18 09:00:40;;;;;;;41.78;21.05;;;;;;;12.93;100.00;97234.03;5040362;28;20088;-55
2021/10/18 09:03:19;;;;;;;40.00;21.67;;;;;;;13.13;100.00;97234.88;5050383;28;20516;-53
2021/10/18 09:05:48;;;;;;;42.45;19.52;;;;;;;13.29;100.00;97229.84;5038505;28;20329;-55
2021/10/18 09:08:37;;;;;;;40.40;20.45;;;;;;;13.45;100.00;97237.19;5043486;28;20065;-56
2021/10/18 09:11:07;;;;;;;41.08;20.05;;;;;;;12.92;100.00;97243.81;5027738;28;20483;-52
2021/10/18 09:13:37;;;;;;;38.20;19.13;;;;;;;12.94;100.00;97235.69;5029476;28;20075;-56
2021/10/18 09:16:05;;;;;;;39.70;21.05;;;;;;;13.52;100.00;97230.34;5042658;28;20543;-56
2021/10/18 09:18:35;;;;;;;45.78;22.85;;;;;;;13.42;100.00;97229.53;5048937;28;20068;-55
2021/10/18 09:21:07;;;;;;;37.78;21.40;;;;;;;13.73;100.00;97227.50;5050682;28;20068;-56
2021/10/18 09:23:40;;;;;;;41.08;21.70;;;;;;;13.70;100.00;97231.28;5048728;28;20065;-56
2021/10/18 09:26:11;;;;;;;38.28;20.73;;;;;;;13.64;100.00;97233.66;5050493;28;20075;-54
2021/10/18 09:28:40;;;;;;;38.67;19.50;;;;;;;13.93;100.00;97237.03;5048774;28;20109;-54
2021/10/18 09:31:16;;;;;;;35.33;19.90;;;;;;;13.38;100.00;97244.03;5050407;28;20080;-53
2021/10/18 09:33:49;;;;;;;35.08;19.15;;;;;;;13.50;100.00;97243.75;5045667;28;20049;-55
2021/10/18 09:36:23;;;;;;;38.72;22.05;;;;;;;13.68;100.00;97240.34;5025378;28;20545;-54
2021/10/18 09:39:17;;;;;;;36.60;21.05;;;;;;;13.68;100.00;97240.34;5032253;28;20092;-53
2021/10/18 09:41:57;;;;;;;39.17;21.42;;;;;;;14.01;100.00;97238.97;5022960;28;20141;-56
2021/10/18 09:44:46;;;;;;;33.50;19.50;;;;;;;13.56;100.00;97231.75;5047547;28;20080;-54
2021/10/18 10:53:17;;;;;;;41.22;22.38;;;;;;;14.48;100.00;97215.78;5038127;28;20092;-54
2021/10/18 10:55:46;;;;;;;41.88;25.40;;;;;;;13.92;100.00;97222.09;5028922;28;20072;-55
2021/10/18 10:58:36;;;;;;;39.00;24.27;;;;;;;14.53;100.00;97220.69;5008641;28;20073;-57
2021/10/18 11:01:06;;;;;;;37.28;23.17;;;;;;;13.82;100.00;97221.31;5024640;28;20069;-54
2021/10/18 11:03:40;;;;;;;36.33;20.65;;;;;;;13.57;100.00;97228.09;5047752;28;20068;-53
2021/10/18 11:06:10;;;;;;;39.28;22.17;;;;;;;14.05;100.00;97213.00;5049835;28;20103;-51
2021/10/18 11:08:41;;;;;;;34.10;21.10;;;;;;;13.15;100.00;97211.75;5047059;28;20291;-52
2021/10/18 11:11:14;;;;;;;40.45;23.95;;;;;;;14.24;100.00;97210.19;5047666;28;20064;-49
2021/10/18 11:13:50;;;;;;;34.28;21.70;;;;;;;13.73;100.00;97208.94;5047132;28;20076;-54
2021/10/18 11:16:20;;;;;;;39.60;22.00;;;;;;;14.81;100.00;97202.03;5051827;28;20079;-56
2021/10/18 11:18:50;;;;;;;38.15;23.50;;;;;;;15.09;100.00;97197.44;5047548;28;20095;-55
2021/10/18 11:21:21;;;;;;;36.53;22.20;;;;;;;14.62;100.00;97190.56;5048615;28;20084;-52
2021/10/18 11:24:04;;;;;;;35.42;20.95;;;;;;;14.32;100.00;97183.78;5029513;28;20104;-56
2021/10/18 11:26:34;;;;;;;38.55;20.40;;;;;;;13.41;100.00;97201.38;5049494;28;20072;-53
2021/10/18 11:29:06;;;;;;;34.65;20.77;;;;;;;13.65;100.00;97195.56;5028802;28;20512;-50
2021/10/18 11:31:39;;;;;;;40.03;23.55;;;;;;;13.95;100.00;97197.13;5038025;28;20073;-52
2021/10/18 11:34:11;;;;;;;37.42;23.10;;;;;;;13.85;100.00;97194.50;5038783;28;20480;-54
2021/10/18 11:36:41;;;;;;;38.85;23.33;;;;;;;13.97;100.00;97196.00;5026873;28;20065;-55
2021/10/18 11:39:14;;;;;;;37.92;22.95;;;;;;;13.64;100.00;97191.25;5033499;28;20084;-53
2021/10/18 11:42:16;;;;;;;35.55;23.35;;;;;;;13.75;100.00;97196.38;5029510;28;20076;-55
2021/10/18 11:44:49;;;;;;;40.72;23.95;;;;;;;14.26;100.00;97194.97;4977235;28;20078;-50
2021/10/18 11:47:28;;;;;;;36.20;22.77;;;;;;;13.82;100.00;97193.97;5000530;28;20066;-53
2021/10/18 11:50:11;;;;;;;39.75;22.30;;;;;;;14.19;100.00;97193.91;5011177;28;20156;-55
2021/10/18 11:52:41;;;;;;;40.03;23.15;;;;;;;14.34;100.00;97192.41;5038733;28;20080;-53
2021/10/18 11:55:10;;;;;;;38.47;22.52;;;;;;;14.39;100.00;97195.47;5036379;28;20473;-51
2021/10/18 11:57:42;;;;;;;40.13;23.70;;;;;;;14.55;100.00;97189.50;5016533;28;20537;-56
2021/10/18 12:00:14;;;;;;;40.25;22.77;;;;;;;15.14;100.00;97180.03;5042505;28;20087;-53
2021/10/18 12:02:45;;;;;;;36.70;21.50;;;;;;;14.68;100.00;97194.44;5048874;28;20084;-53
2021/10/18 12:05:14;;;;;;;39.08;23.35;;;;;;;14.37;100.00;97191.28;5025669;28;20433;-51
2021/10/18 12:07:44;;;;;;;41.97;24.48;;;;;;;14.61;100.00;97190.72;5036455;28;20077;-54
2021/10/18 12:10:18;;;;;;;37.58;21.52;;;;;;;15.18;100.00;97184.06;5033120;28;20061;-54
2021/10/18 12:13:21;;;;;;;37.58;24.27;;;;;;;14.74;100.00;97180.56;5023810;28;20060;-54
2021/10/18 12:15:58;;;;;;;39.85;24.23;;;;;;;15.00;100.00;97177.09;5043380;28;20068;-53
2021/10/18 12:18:28;;;;;;;38.50;24.58;;;;;;;15.56;100.00;97183.78;5047304;28;20525;-53
2021/10/18 12:20:59;;;;;;;38.45;23.98;;;;;;;14.68;100.00;97179.34;5037720;28;20088;-54
2021/10/18 12:23:30;;;;;;;38.92;23.63;;;;;;;15.09;100.00;97178.84;5031927;28;20071;-57
2021/10/18 12:26:01;;;;;;;;;;;;;;;14.59;100.00;97177.59;5031213;28;20062;-55
2021/10/18 12:28:39;;;;;;;37.28;23.02;;;;;;;15.22;100.00;97173.94;5019976;28;20059;-53
2021/10/18 12:31:29;;;;;;;38.53;22.20;;;;;;;15.75;100.00;97180.06;5038988;28;20770;-55
2021/10/18 12:34:03;;;;;;;40.15;22.90;;;;;;;15.74;100.00;97170.44;5030118;28;20122;-53
2021/10/18 12:36:32;;;;;;;39.30;24.08;;;;;;;15.73;100.00;97174.94;5029527;28;20064;-51